createdAt,value
2024-04-30T00:02:52.886Z,6.9
2024-04-30T00:04:53.607Z,6.9
2024-04-30T00:07:54.592Z,6.9
2024-04-30T00:09:55.138Z,6.9
2024-04-30T00:14:55.697Z,7.0
2024-04-30T00:17:56.265Z,7.0
2024-04-30T00:22:56.946Z,7.2
2024-04-30T00:25:57.467Z,7.2
2024-04-30T00:27:58.075Z,7.3
2024-04-30T00:30:58.815Z,7.3
2024-04-30T00:32:59.483Z,7.3
2024-04-30T00:38:00.230Z,7.3
2024-04-30T00:41:00.964Z,7.0
2024-04-30T00:43:01.681Z,6.8
2024-04-30T00:46:02.358Z,6.6
2024-04-30T00:48:03.058Z,6.6
2024-04-30T00:51:03.915Z,6.5
2024-04-30T00:53:04.482Z,6.5
2024-04-30T00:56:05.031Z,6.5
2024-04-30T00:59:05.602Z,6.6
2024-04-30T01:04:06.174Z,6.8
2024-04-30T01:06:06.863Z,6.7
2024-04-30T01:09:07.399Z,6.8
2024-04-30T01:11:07.962Z,6.8
2024-04-30T01:14:08.656Z,6.8
2024-04-30T01:16:09.241Z,6.7
2024-04-30T01:19:09.942Z,6.7
2024-04-30T01:21:10.580Z,6.7
2024-04-30T01:24:11.167Z,6.6
2024-04-30T01:26:11.773Z,6.6
2024-04-30T01:29:12.338Z,6.6
2024-04-30T01:34:12.886Z,6.6
2024-04-30T01:36:13.505Z,6.6
2024-04-30T01:39:14.077Z,6.6
2024-04-30T01:44:14.758Z,6.6
2024-04-30T01:47:15.318Z,6.6
2024-04-30T01:49:15.849Z,6.6
2024-04-30T01:52:16.488Z,6.6
2024-04-30T01:54:17.440Z,6.5
2024-04-30T01:57:18.005Z,6.5
2024-04-30T01:59:18.578Z,6.5
2024-04-30T02:02:19.186Z,6.4
2024-04-30T02:04:19.857Z,6.5
2024-04-30T02:07:20.549Z,6.6
2024-04-30T02:09:21.607Z,6.5
2024-04-30T02:12:22.161Z,6.5
2024-04-30T02:14:22.722Z,6.5
2024-04-30T02:17:23.301Z,6.5
2024-04-30T02:20:24.128Z,6.5
2024-04-30T02:25:24.754Z,6.3
2024-04-30T02:27:25.380Z,6.2
2024-04-30T02:30:25.924Z,6.2
2024-04-30T02:32:26.582Z,6.1
2024-04-30T02:35:27.439Z,6.1
2024-04-30T02:37:28.021Z,6.2
2024-04-30T02:40:28.850Z,6.4
2024-04-30T02:42:29.494Z,6.6
2024-04-30T02:45:30.066Z,6.9
2024-04-30T02:47:30.686Z,7.2
2024-04-30T02:50:31.440Z,7.2
2024-04-30T02:52:31.988Z,7.3
2024-04-30T02:55:32.793Z,6.8
2024-04-30T02:58:33.744Z,6.4
2024-04-30T03:00:34.545Z,6.3
2024-04-30T03:05:35.177Z,6.4
2024-04-30T03:08:35.805Z,6.4
2024-04-30T03:10:36.506Z,6.4
2024-04-30T03:13:37.287Z,6.5
2024-04-30T03:15:38.184Z,6.5
2024-04-30T03:18:38.790Z,6.7
2024-04-30T03:20:39.342Z,6.8
2024-04-30T03:23:39.893Z,7.0
2024-04-30T03:25:40.502Z,7.0
2024-04-30T03:28:41.269Z,7.0
2024-04-30T03:30:41.973Z,7.0
2024-04-30T03:33:42.634Z,6.9
2024-04-30T03:35:43.485Z,7.0
2024-04-30T03:38:44.032Z,7.0
2024-04-30T03:40:44.674Z,7.2
2024-04-30T03:46:45.515Z,7.2
2024-04-30T03:48:46.084Z,7.2
2024-04-30T03:51:46.640Z,7.1
2024-04-30T03:53:47.162Z,7.0
2024-04-30T03:56:47.963Z,6.8
2024-04-30T03:58:48.522Z,6.8
2024-04-30T04:01:49.468Z,6.8
2024-04-30T04:03:50.221Z,6.9
2024-04-30T04:06:50.820Z,7.2
2024-04-30T04:08:51.384Z,7.2
2024-04-30T04:11:51.939Z,7.2
2024-04-30T04:13:52.564Z,7.2
2024-04-30T04:16:53.119Z,7.2
2024-04-30T04:19:53.714Z,7.3
2024-04-30T04:21:54.282Z,7.2
2024-04-30T04:26:54.900Z,7.1
2024-04-30T04:29:55.479Z,7.3
2024-04-30T04:31:56.880Z,7.4
2024-04-30T04:35:01.837Z,7.5
2024-04-30T04:37:02.420Z,7.5
2024-04-30T04:40:03.365Z,7.5
2024-04-30T04:42:05.342Z,7.5
2024-04-30T04:45:05.913Z,7.4
2024-04-30T04:47:06.500Z,7.2
2024-04-30T04:50:07.053Z,7.2
2024-04-30T04:52:07.624Z,7.2
2024-04-30T04:55:08.299Z,7.3
2024-04-30T04:57:08.994Z,7.5
2024-04-30T05:00:09.583Z,7.7
2024-04-30T05:02:10.273Z,8.1
2024-04-30T05:08:11.009Z,8.8
2024-04-30T05:10:11.600Z,9.0
2024-04-30T05:13:12.242Z,9.3
2024-04-30T05:15:12.880Z,9.6
2024-04-30T05:18:13.487Z,9.9
2024-04-30T05:20:14.254Z,10.1
2024-04-30T05:23:14.826Z,10.3
2024-04-30T05:25:15.410Z,10.6
2024-04-30T05:28:16.107Z,10.8
2024-04-30T05:30:16.801Z,11.0
2024-04-30T05:33:17.471Z,11.2
2024-04-30T05:35:18.351Z,11.4
2024-04-30T05:38:18.945Z,11.5
2024-04-30T05:40:19.631Z,11.6
2024-04-30T05:43:20.432Z,11.8
2024-04-30T05:48:21.115Z,12.2
2024-04-30T05:50:21.655Z,12.2
2024-04-30T05:53:22.184Z,12.2
2024-04-30T05:56:22.780Z,12.4
2024-04-30T05:58:23.383Z,12.5
2024-04-30T06:01:24.148Z,12.8
2024-04-30T06:03:25.066Z,13.0
2024-04-30T06:06:25.707Z,13.1
2024-04-30T06:08:26.339Z,13.4
2024-04-30T06:11:27.018Z,13.8
2024-04-30T06:13:27.845Z,14.3
2024-04-30T06:16:28.567Z,14.7
2024-04-30T06:18:29.336Z,15.0
2024-04-30T06:21:31.434Z,15.4
2024-04-30T06:23:40.555Z,16.0
2024-04-30T06:28:41.210Z,16.4
2024-04-30T06:31:42.110Z,16.2
2024-04-30T06:33:42.859Z,16.3
2024-04-30T06:36:43.642Z,16.6
2024-04-30T06:38:44.225Z,16.6
2024-04-30T06:41:44.778Z,16.6
2024-04-30T06:43:45.368Z,16.7
2024-04-30T06:46:46.139Z,16.7
2024-04-30T06:48:46.806Z,16.8
2024-04-30T06:51:47.539Z,17.0
2024-04-30T06:54:48.089Z,17.2
2024-04-30T06:56:48.620Z,17.1
2024-04-30T06:59:49.167Z,17.3
2024-04-30T07:01:49.760Z,17.5
2024-04-30T07:04:50.526Z,17.8
2024-04-30T07:09:51.483Z,17.9
2024-04-30T07:11:52.085Z,18.2
2024-04-30T07:14:52.646Z,18.2
2024-04-30T07:16:56.962Z,18.3
2024-04-30T07:20:09.823Z,18.7
2024-04-30T07:22:10.398Z,18.7
2024-04-30T07:25:11.239Z,18.7
2024-04-30T07:27:11.885Z,18.8
2024-04-30T07:30:12.529Z,19.0
2024-04-30T07:32:13.141Z,18.9
2024-04-30T07:35:13.800Z,19.2
2024-04-30T07:37:14.453Z,19.2
2024-04-30T07:40:15.172Z,19.2
2024-04-30T07:42:15.821Z,19.5
2024-04-30T07:45:16.369Z,19.4
2024-04-30T07:50:16.958Z,19.5
2024-04-30T07:53:17.604Z,19.9
2024-04-30T07:55:18.285Z,20.0
2024-04-30T07:58:19.022Z,19.8
2024-04-30T08:00:19.630Z,20.2
2024-04-30T08:03:20.261Z,20.4
2024-04-30T08:05:20.920Z,20.2
2024-04-30T08:08:22.768Z,20.1
2024-04-30T08:10:23.542Z,20.2
2024-04-30T08:13:24.263Z,20.4
2024-04-30T08:15:25.066Z,20.7
2024-04-30T08:18:25.795Z,20.9
2024-04-30T08:20:26.512Z,21.1
2024-04-30T08:23:27.047Z,21.2
2024-04-30T08:26:27.627Z,21.0
2024-04-30T08:30:28.273Z,21.4
2024-04-30T08:33:30.025Z,21.4
2024-04-30T08:35:30.972Z,21.3
2024-04-30T08:38:31.537Z,21.4
2024-04-30T08:41:32.094Z,21.5
2024-04-30T08:43:32.675Z,21.3
2024-04-30T08:46:33.440Z,21.2
2024-04-30T08:48:34.399Z,21.2
2024-04-30T08:51:34.956Z,21.4
2024-04-30T08:53:35.506Z,21.5
2024-04-30T08:56:36.041Z,21.4
2024-04-30T08:58:36.637Z,21.5
2024-04-30T09:01:37.535Z,21.5
2024-04-30T09:03:38.302Z,21.6
2024-04-30T09:06:38.970Z,21.6
2024-04-30T09:11:39.659Z,21.5
2024-04-30T09:14:40.559Z,21.4
2024-04-30T09:16:43.052Z,21.5
2024-04-30T09:19:45.193Z,21.6
2024-04-30T09:21:47.980Z,21.7
2024-04-30T09:24:48.810Z,21.8
2024-04-30T09:26:49.477Z,22.0
2024-04-30T09:29:50.059Z,22.1
2024-04-30T09:31:50.614Z,22.0
2024-04-30T09:34:51.225Z,22.2
2024-04-30T09:36:51.849Z,22.4
2024-04-30T09:39:52.406Z,22.4
2024-04-30T09:41:52.945Z,22.4
2024-04-30T09:44:53.492Z,22.4
2024-04-30T09:46:54.114Z,22.4
2024-04-30T09:51:54.904Z,22.8
2024-04-30T09:54:55.539Z,22.9
2024-04-30T09:56:56.105Z,22.9
2024-04-30T09:59:56.664Z,22.8
2024-04-30T10:01:57.395Z,22.8
2024-04-30T10:04:58.622Z,22.8
2024-04-30T10:07:59.619Z,23.0
2024-04-30T10:10:00.208Z,23.2
2024-04-30T10:13:00.892Z,23.3
2024-04-30T10:15:01.457Z,23.3
2024-04-30T10:18:02.138Z,23.2
2024-04-30T10:20:02.873Z,23.3
2024-04-30T10:23:03.457Z,23.4
2024-04-30T10:25:04.017Z,23.2
2024-04-30T10:28:04.816Z,23.3
2024-04-30T10:33:05.947Z,23.6
2024-04-30T10:36:06.885Z,23.7
2024-04-30T10:38:07.420Z,23.6
2024-04-30T10:41:07.980Z,23.8
2024-04-30T10:43:08.569Z,23.7
2024-04-30T10:46:09.335Z,23.7
2024-04-30T10:48:11.120Z,24.0
2024-04-30T10:51:12.098Z,24.2
2024-04-30T10:53:12.663Z,24.0
2024-04-30T10:56:13.230Z,23.7
2024-04-30T10:58:13.834Z,23.9
2024-04-30T11:01:14.627Z,24.1
2024-04-30T11:03:15.301Z,24.3
2024-04-30T11:06:16.065Z,24.5
2024-04-30T11:08:16.766Z,24.7
2024-04-30T11:13:17.362Z,24.7
2024-04-30T11:16:18.098Z,24.5
2024-04-30T11:18:18.919Z,24.5
2024-04-30T11:21:19.890Z,24.7
2024-04-30T11:23:20.440Z,24.3
2024-04-30T11:26:21.102Z,24.3
2024-04-30T11:31:21.722Z,24.5
2024-04-30T11:34:22.420Z,24.4
2024-04-30T11:36:23.478Z,24.4
2024-04-30T11:39:24.006Z,24.6
2024-04-30T11:41:24.631Z,24.8
2024-04-30T11:44:25.176Z,24.6
2024-04-30T11:46:25.758Z,24.8
2024-04-30T11:49:26.532Z,25.1
2024-04-30T11:54:27.315Z,25.6
2024-04-30T11:56:27.861Z,25.1
2024-04-30T11:59:28.448Z,25.0
2024-04-30T12:02:29.125Z,25.1
2024-04-30T12:04:29.975Z,25.0
2024-04-30T12:07:30.871Z,25.1
2024-04-30T12:09:31.579Z,25.3
2024-04-30T12:12:32.172Z,25.5
2024-04-30T12:14:32.687Z,25.5
2024-04-30T12:17:33.335Z,25.6
2024-04-30T12:19:34.327Z,25.8
2024-04-30T12:22:35.207Z,25.6
2024-04-30T12:24:36.044Z,25.5
2024-04-30T12:27:36.587Z,25.5
2024-04-30T12:29:37.134Z,25.7
2024-04-30T12:34:37.733Z,26.1
2024-04-30T12:37:38.652Z,26.2
2024-04-30T12:39:39.307Z,26.4
2024-04-30T12:42:39.869Z,26.6
2024-04-30T12:44:40.441Z,26.7
2024-04-30T12:47:41.054Z,26.8
2024-04-30T12:50:41.860Z,26.9
2024-04-30T12:52:42.478Z,27.0
2024-04-30T12:55:43.105Z,27.1
2024-04-30T12:57:43.738Z,27.3
2024-04-30T13:00:44.341Z,27.0
2024-04-30T13:02:45.041Z,26.6
2024-04-30T13:05:45.703Z,26.4
2024-04-30T13:07:46.242Z,26.6
2024-04-30T13:10:46.930Z,26.4
2024-04-30T13:15:47.806Z,26.3
2024-04-30T13:17:48.437Z,26.1
2024-04-30T13:20:49.151Z,26.2
2024-04-30T13:23:49.760Z,26.0
2024-04-30T13:25:50.431Z,26.3
2024-04-30T13:28:51.119Z,26.1
2024-04-30T13:30:51.801Z,26.2
2024-04-30T13:33:52.373Z,26.2
2024-04-30T13:35:52.929Z,26.2
2024-04-30T13:38:53.493Z,26.5
2024-04-30T13:40:54.133Z,27.0
2024-04-30T13:43:54.791Z,26.8
2024-04-30T13:45:57.672Z,26.5
2024-04-30T13:49:00.033Z,26.1
2024-04-30T13:51:00.903Z,26.5
2024-04-30T13:56:01.505Z,26.4
2024-04-30T13:59:04.200Z,26.5
2024-04-30T14:01:09.832Z,26.7
2024-04-30T14:04:10.699Z,26.9
2024-04-30T14:06:11.840Z,27.0
2024-04-30T14:09:12.395Z,26.8
2024-04-30T14:11:12.967Z,26.8
2024-04-30T14:14:13.640Z,26.9
2024-04-30T14:16:14.189Z,27.0
2024-04-30T14:19:15.102Z,26.6
2024-04-30T14:21:15.824Z,27.0
2024-04-30T14:24:16.512Z,27.0
2024-04-30T14:26:17.069Z,26.5
2024-04-30T14:29:17.697Z,26.0
2024-04-30T14:32:18.284Z,25.8
2024-04-30T14:37:19.066Z,25.8
2024-04-30T14:39:19.690Z,25.9
2024-04-30T14:42:20.352Z,26.0
2024-04-30T14:44:20.923Z,26.0
2024-04-30T14:47:21.497Z,26.2
2024-04-30T14:49:22.241Z,26.0
2024-04-30T14:52:23.082Z,25.8
2024-04-30T14:54:23.815Z,25.5
2024-04-30T14:57:24.360Z,25.3
2024-04-30T14:59:24.915Z,25.3
2024-04-30T15:02:25.478Z,25.4
2024-04-30T15:05:26.030Z,25.2
2024-04-30T15:07:26.629Z,25.1
2024-04-30T15:10:27.315Z,25.1
2024-04-30T15:12:27.932Z,24.8
2024-04-30T15:17:29.023Z,24.8
2024-04-30T15:20:29.771Z,24.7
2024-04-30T15:22:30.323Z,24.7
2024-04-30T15:25:31.000Z,24.8
2024-04-30T15:27:31.684Z,24.7
2024-04-30T15:30:32.229Z,24.8
2024-04-30T15:32:32.863Z,24.8
2024-04-30T15:35:33.880Z,24.7
2024-04-30T15:38:34.472Z,24.7
2024-04-30T15:40:35.123Z,24.7
2024-04-30T15:43:35.808Z,24.7
2024-04-30T15:45:37.017Z,24.7
2024-04-30T15:48:37.651Z,24.7
2024-04-30T15:50:38.524Z,24.6
2024-04-30T15:53:39.149Z,24.6
2024-04-30T15:58:39.800Z,24.8
2024-04-30T16:00:40.637Z,24.8
2024-04-30T16:03:41.325Z,25.1
2024-04-30T16:05:42.525Z,25.1
2024-04-30T16:08:46.610Z,25.4
2024-04-30T16:10:47.165Z,25.7
2024-04-30T16:13:48.276Z,25.8
2024-04-30T16:15:50.342Z,25.9
2024-04-30T16:19:08.731Z,26.1
2024-04-30T16:21:09.480Z,25.9
2024-04-30T16:24:10.059Z,25.7
2024-04-30T16:26:10.610Z,25.4
2024-04-30T16:29:11.179Z,25.3
2024-04-30T16:31:11.802Z,25.4
2024-04-30T16:34:12.664Z,25.6
2024-04-30T16:39:13.267Z,25.7
2024-04-30T16:41:13.814Z,25.7
2024-04-30T16:44:14.345Z,25.8
2024-04-30T16:46:14.857Z,25.7
2024-04-30T16:49:15.473Z,25.7
2024-04-30T16:51:16.291Z,25.6
2024-04-30T16:54:16.982Z,25.5
2024-04-30T16:56:17.652Z,25.5
2024-04-30T16:59:18.193Z,25.5
2024-04-30T17:02:18.757Z,25.6
2024-04-30T17:04:19.629Z,25.4
2024-04-30T17:07:20.577Z,25.4
2024-04-30T17:09:21.167Z,25.4
2024-04-30T17:12:21.912Z,25.4
2024-04-30T17:14:22.550Z,25.0
2024-04-30T17:19:23.185Z,24.6
2024-04-30T17:22:23.751Z,24.6
2024-04-30T17:24:24.330Z,24.6
2024-04-30T17:27:25.041Z,24.4
2024-04-30T17:29:25.715Z,24.2
2024-04-30T17:32:26.392Z,24.1
2024-04-30T17:34:27.304Z,24.0
2024-04-30T17:37:27.872Z,24.0
2024-04-30T17:39:28.422Z,23.9
2024-04-30T17:42:29.081Z,23.7
2024-04-30T17:45:29.756Z,23.6
2024-04-30T17:47:30.667Z,23.5
2024-04-30T17:50:31.457Z,23.4
2024-04-30T17:52:33.839Z,23.3
2024-04-30T17:55:34.827Z,23.3
2024-04-30T18:02:35.450Z,22.9
2024-04-30T18:05:36.198Z,22.7
2024-04-30T18:07:36.927Z,22.5
2024-04-30T18:10:44.924Z,22.3
2024-04-30T18:12:54.943Z,22.1
2024-04-30T18:15:55.856Z,21.8
2024-04-30T18:17:56.649Z,21.6
2024-04-30T18:20:57.340Z,21.5
2024-04-30T18:22:57.933Z,21.3
2024-04-30T18:25:58.536Z,21.0
2024-04-30T18:27:59.134Z,20.9
2024-04-30T18:30:59.916Z,20.8
2024-04-30T18:33:00.747Z,20.7
2024-04-30T18:36:01.574Z,20.6
2024-04-30T18:41:04.304Z,20.5
2024-04-30T18:43:27.885Z,20.3
2024-04-30T18:46:28.486Z,20.3
2024-04-30T18:48:29.178Z,20.1
2024-04-30T18:51:30.213Z,20.0
2024-04-30T18:53:30.838Z,19.9
2024-04-30T18:56:31.390Z,19.8
2024-04-30T18:58:31.926Z,19.7
2024-04-30T19:01:32.548Z,19.6
2024-04-30T19:03:33.464Z,19.6
2024-04-30T19:06:34.492Z,19.5
2024-04-30T19:08:36.125Z,19.6
2024-04-30T19:11:36.907Z,19.7
2024-04-30T19:13:37.616Z,19.7
2024-04-30T19:16:38.223Z,19.7
2024-04-30T19:21:38.846Z,19.7
2024-04-30T19:24:39.672Z,19.9
2024-04-30T19:26:40.388Z,20.0
2024-04-30T19:29:40.955Z,20.0
2024-04-30T19:31:41.504Z,20.1
2024-04-30T19:34:42.140Z,20.3
2024-04-30T19:36:42.925Z,20.3
2024-04-30T19:39:43.937Z,20.2
2024-04-30T19:41:44.785Z,20.2
2024-04-30T19:44:45.336Z,20.2
2024-04-30T19:46:45.907Z,20.2
2024-04-30T19:49:46.515Z,20.1
2024-04-30T19:51:47.227Z,20.0
2024-04-30T19:54:47.893Z,19.9
2024-04-30T19:56:48.661Z,19.9
2024-04-30T20:02:49.364Z,19.8
2024-04-30T20:04:50.258Z,19.7
2024-04-30T20:07:51.245Z,19.6
2024-04-30T20:09:51.872Z,19.6
2024-04-30T20:12:52.827Z,19.6
2024-04-30T20:14:56.180Z,19.5
2024-04-30T20:17:59.359Z,19.5
2024-04-30T20:20:00.118Z,19.5
2024-04-30T20:23:00.863Z,19.5
2024-04-30T20:25:01.466Z,19.5
2024-04-30T20:28:02.383Z,19.4
2024-04-30T20:30:03.743Z,19.4
2024-04-30T20:33:12.237Z,19.3
2024-04-30T20:35:13.007Z,19.3
2024-04-30T20:38:13.556Z,19.3
2024-04-30T20:43:14.110Z,19.2
2024-04-30T20:45:14.670Z,19.2
2024-04-30T20:48:15.311Z,19.1
2024-04-30T20:50:16.194Z,19.1
2024-04-30T20:53:16.742Z,19.0
2024-04-30T20:55:17.295Z,19.0
2024-04-30T20:58:17.912Z,18.9
2024-04-30T21:01:18.571Z,18.8
2024-04-30T21:03:19.710Z,18.8
2024-04-30T21:06:21.007Z,18.7
2024-04-30T21:08:21.707Z,18.6
2024-04-30T21:11:22.407Z,18.5
2024-04-30T21:13:23.091Z,18.6
2024-04-30T21:16:23.628Z,18.4
2024-04-30T21:18:24.246Z,18.3
2024-04-30T21:23:25.200Z,18.2
2024-04-30T21:26:25.746Z,18.1
2024-04-30T21:28:26.299Z,18.2
2024-04-30T21:31:26.877Z,18.2
2024-04-30T21:33:27.566Z,18.1
2024-04-30T21:36:29.661Z,18.0
2024-04-30T21:38:30.328Z,18.0
2024-04-30T21:41:30.840Z,17.9
2024-04-30T21:43:31.390Z,17.8
2024-04-30T21:46:31.914Z,17.8
2024-04-30T21:49:32.599Z,17.8
2024-04-30T21:51:33.532Z,17.7
2024-04-30T21:54:34.256Z,17.6
2024-04-30T21:56:35.012Z,17.6
2024-04-30T21:59:35.575Z,17.6
2024-04-30T22:04:36.429Z,17.5
2024-04-30T22:06:37.486Z,17.5
2024-04-30T22:09:38.318Z,17.4
2024-04-30T22:11:39.006Z,17.4
2024-04-30T22:14:39.540Z,17.3
2024-04-30T22:16:40.098Z,17.3
2024-04-30T22:19:40.681Z,17.2
2024-04-30T22:21:41.226Z,17.3
2024-04-30T22:24:41.885Z,17.2
2024-04-30T22:26:42.705Z,17.1
2024-04-30T22:29:43.324Z,17.0
2024-04-30T22:32:44.089Z,17.0
2024-04-30T22:34:45.565Z,17.0
2024-04-30T22:37:46.132Z,17.0
2024-04-30T22:39:46.785Z,16.9
2024-04-30T22:44:47.482Z,16.7
2024-04-30T22:47:48.104Z,16.7
2024-04-30T22:49:48.949Z,16.6
2024-04-30T22:52:49.540Z,16.6
2024-04-30T22:54:50.149Z,16.6
2024-04-30T22:57:51.792Z,16.6
2024-04-30T22:59:52.565Z,16.5
2024-04-30T23:02:53.142Z,16.4
2024-04-30T23:05:53.776Z,16.4
2024-04-30T23:07:54.375Z,16.4
2024-04-30T23:10:55.004Z,16.3
2024-04-30T23:12:55.703Z,16.2
2024-04-30T23:15:56.520Z,16.2
2024-04-30T23:17:57.318Z,16.1
2024-04-30T23:20:58.072Z,16.2
2024-04-30T23:25:58.615Z,16.1
2024-04-30T23:27:59.164Z,16.1
2024-04-30T23:30:59.876Z,16.0
2024-04-30T23:33:00.671Z,15.9
2024-04-30T23:36:01.387Z,15.8
2024-04-30T23:38:02.020Z,15.9
2024-04-30T23:41:02.604Z,15.9
2024-04-30T23:43:03.214Z,15.9
2024-04-30T23:46:03.971Z,15.8
2024-04-30T23:48:04.669Z,15.6
2024-04-30T23:51:05.429Z,15.6
2024-04-30T23:53:06.066Z,15.6
2024-04-30T23:56:06.666Z,15.6
2024-04-30T23:59:07.230Z,15.6
